sensor_id;sensor_type;location;lat;lon;timestamp;P1;durP1;ratioP1;P2;durP2;ratioP2
18596;SDS011;9428;50.950;6.912;2022-08-19T00:02:44;8.90;;;7.95;;
18596;SDS011;9428;50.950;6.912;2022-08-19T00:05:32;10.55;;;7.60;;
18596;SDS011;9428;50.950;6.912;2022-08-19T00:08:19;14.25;;;8.35;;
18596;SDS011;9428;50.950;6.912;2022-08-19T00:11:07;9.60;;;8.20;;
18596;SDS011;9428;50.950;6.912;2022-08-19T00:13:54;13.48;;;9.23;;
18596;SDS011;9428;50.950;6.912;2022-08-19T00:16:43;10.52;;;8.73;;
18596;SDS011;9428;50.950;6.912;2022-08-19T00:19:33;10.85;;;8.82;;
18596;SDS011;9428;50.950;6.912;2022-08-19T00:22:21;9.93;;;8.35;;
18596;SDS011;9428;50.950;6.912;2022-08-19T00:25:08;11.80;;;9.27;;
18596;SDS011;9428;50.950;6.912;2022-08-19T00:27:56;10.75;;;8.73;;
18596;SDS011;9428;50.950;6.912;2022-08-19T00:30:44;11.35;;;8.68;;
18596;SDS011;9428;50.950;6.912;2022-08-19T00:33:32;11.48;;;8.82;;
18596;SDS011;9428;50.950;6.912;2022-08-19T00:36:21;12.45;;;9.15;;
18596;SDS011;9428;50.950;6.912;2022-08-19T00:39:09;10.73;;;8.63;;
18596;SDS011;9428;50.950;6.912;2022-08-19T00:41:57;10.10;;;9.10;;
18596;SDS011;9428;50.950;6.912;2022-08-19T00:44:44;9.73;;;8.60;;
18596;SDS011;9428;50.950;6.912;2022-08-19T00:47:31;10.50;;;9.45;;
18596;SDS011;9428;50.950;6.912;2022-08-19T00:50:19;11.77;;;10.00;;
18596;SDS011;9428;50.950;6.912;2022-08-19T00:53:08;12.73;;;9.25;;
18596;SDS011;9428;50.950;6.912;2022-08-19T00:55:58;11.90;;;9.63;;
18596;SDS011;9428;50.950;6.912;2022-08-19T00:58:47;11.70;;;9.55;;
18596;SDS011;9428;50.950;6.912;2022-08-19T01:01:35;11.85;;;8.90;;
18596;SDS011;9428;50.950;6.912;2022-08-19T01:04:22;11.82;;;9.98;;
18596;SDS011;9428;50.950;6.912;2022-08-19T01:07:10;12.98;;;9.30;;
18596;SDS011;9428;50.950;6.912;2022-08-19T01:10:01;13.85;;;10.05;;
18596;SDS011;9428;50.950;6.912;2022-08-19T01:12:48;13.15;;;9.65;;
18596;SDS011;9428;50.950;6.912;2022-08-19T01:15:38;13.43;;;10.18;;
18596;SDS011;9428;50.950;6.912;2022-08-19T01:18:29;15.52;;;9.65;;
18596;SDS011;9428;50.950;6.912;2022-08-19T01:21:20;14.45;;;10.10;;
18596;SDS011;9428;50.950;6.912;2022-08-19T01:24:13;12.45;;;9.50;;
18596;SDS011;9428;50.950;6.912;2022-08-19T01:27:03;12.70;;;9.68;;
18596;SDS011;9428;50.950;6.912;2022-08-19T01:29:50;11.13;;;9.48;;
18596;SDS011;9428;50.950;6.912;2022-08-19T01:32:38;12.27;;;9.15;;
18596;SDS011;9428;50.950;6.912;2022-08-19T01:35:25;13.88;;;9.55;;
18596;SDS011;9428;50.950;6.912;2022-08-19T01:38:19;13.02;;;9.82;;
18596;SDS011;9428;50.950;6.912;2022-08-19T01:41:09;12.40;;;9.35;;
18596;SDS011;9428;50.950;6.912;2022-08-19T01:43:56;14.10;;;8.85;;
18596;SDS011;9428;50.950;6.912;2022-08-19T01:46:44;14.75;;;9.98;;
18596;SDS011;9428;50.950;6.912;2022-08-19T01:49:33;12.55;;;9.20;;
18596;SDS011;9428;50.950;6.912;2022-08-19T01:52:20;12.02;;;9.80;;
18596;SDS011;9428;50.950;6.912;2022-08-19T01:55:08;14.35;;;9.52;;
18596;SDS011;9428;50.950;6.912;2022-08-19T01:58:00;12.35;;;9.20;;
18596;SDS011;9428;50.950;6.912;2022-08-19T02:00:49;13.85;;;9.15;;
18596;SDS011;9428;50.950;6.912;2022-08-19T02:03:36;10.57;;;9.27;;
18596;SDS011;9428;50.950;6.912;2022-08-19T02:06:23;14.85;;;9.25;;
18596;SDS011;9428;50.950;6.912;2022-08-19T02:09:11;12.43;;;8.90;;
18596;SDS011;9428;50.950;6.912;2022-08-19T02:11:58;9.98;;;8.98;;
18596;SDS011;9428;50.950;6.912;2022-08-19T02:14:46;13.15;;;9.70;;
18596;SDS011;9428;50.950;6.912;2022-08-19T02:17:34;15.10;;;9.45;;
18596;SDS011;9428;50.950;6.912;2022-08-19T02:20:21;11.60;;;9.93;;
18596;SDS011;9428;50.950;6.912;2022-08-19T02:23:09;17.38;;;10.10;;
18596;SDS011;9428;50.950;6.912;2022-08-19T02:25:57;10.75;;;9.63;;
18596;SDS011;9428;50.950;6.912;2022-08-19T02:28:45;16.65;;;9.98;;
18596;SDS011;9428;50.950;6.912;2022-08-19T02:31:34;17.85;;;10.65;;
18596;SDS011;9428;50.950;6.912;2022-08-19T02:34:21;13.38;;;9.95;;
18596;SDS011;9428;50.950;6.912;2022-08-19T02:37:10;14.38;;;9.98;;
18596;SDS011;9428;50.950;6.912;2022-08-19T02:40:18;14.70;;;10.90;;
18596;SDS011;9428;50.950;6.912;2022-08-19T02:43:05;12.38;;;10.10;;
18596;SDS011;9428;50.950;6.912;2022-08-19T02:45:54;12.50;;;10.50;;
18596;SDS011;9428;50.950;6.912;2022-08-19T02:48:42;18.13;;;10.00;;
18596;SDS011;9428;50.950;6.912;2022-08-19T02:51:30;13.52;;;9.48;;
18596;SDS011;9428;50.950;6.912;2022-08-19T02:54:19;14.75;;;10.95;;
18596;SDS011;9428;50.950;6.912;2022-08-19T02:57:06;14.73;;;9.88;;
18596;SDS011;9428;50.950;6.912;2022-08-19T02:59:54;15.32;;;10.52;;
18596;SDS011;9428;50.950;6.912;2022-08-19T03:02:41;17.63;;;10.98;;
18596;SDS011;9428;50.950;6.912;2022-08-19T03:05:29;16.75;;;11.27;;
18596;SDS011;9428;50.950;6.912;2022-08-19T03:08:17;13.02;;;10.85;;
18596;SDS011;9428;50.950;6.912;2022-08-19T03:11:04;15.50;;;11.60;;
18596;SDS011;9428;50.950;6.912;2022-08-19T03:13:52;16.10;;;11.65;;
18596;SDS011;9428;50.950;6.912;2022-08-19T03:16:40;16.10;;;12.07;;
18596;SDS011;9428;50.950;6.912;2022-08-19T03:19:29;14.13;;;12.10;;
18596;SDS011;9428;50.950;6.912;2022-08-19T03:22:18;19.35;;;11.95;;
18596;SDS011;9428;50.950;6.912;2022-08-19T03:25:05;15.98;;;12.30;;
18596;SDS011;9428;50.950;6.912;2022-08-19T03:27:53;17.10;;;12.32;;
18596;SDS011;9428;50.950;6.912;2022-08-19T03:30:40;16.65;;;12.90;;
18596;SDS011;9428;50.950;6.912;2022-08-19T03:33:29;21.48;;;14.27;;
18596;SDS011;9428;50.950;6.912;2022-08-19T03:36:18;22.85;;;15.05;;
18596;SDS011;9428;50.950;6.912;2022-08-19T03:39:09;19.95;;;14.20;;
18596;SDS011;9428;50.950;6.912;2022-08-19T03:41:57;19.73;;;15.65;;
18596;SDS011;9428;50.950;6.912;2022-08-19T03:44:45;22.15;;;14.50;;
18596;SDS011;9428;50.950;6.912;2022-08-19T03:47:32;17.45;;;14.77;;
18596;SDS011;9428;50.950;6.912;2022-08-19T03:50:19;20.92;;;15.60;;
18596;SDS011;9428;50.950;6.912;2022-08-19T03:53:07;16.70;;;14.45;;
18596;SDS011;9428;50.950;6.912;2022-08-19T03:55:56;21.67;;;15.95;;
18596;SDS011;9428;50.950;6.912;2022-08-19T03:58:44;20.52;;;17.90;;
18596;SDS011;9428;50.950;6.912;2022-08-19T04:01:32;25.25;;;19.23;;
18596;SDS011;9428;50.950;6.912;2022-08-19T04:04:19;34.42;;;25.83;;
18596;SDS011;9428;50.950;6.912;2022-08-19T04:07:07;33.25;;;24.98;;
18596;SDS011;9428;50.950;6.912;2022-08-19T04:09:56;35.03;;;24.40;;
18596;SDS011;9428;50.950;6.912;2022-08-19T04:12:45;33.03;;;24.50;;
18596;SDS011;9428;50.950;6.912;2022-08-19T04:15:33;32.00;;;24.55;;
18596;SDS011;9428;50.950;6.912;2022-08-19T04:18:24;28.42;;;23.00;;
18596;SDS011;9428;50.950;6.912;2022-08-19T04:21:15;30.13;;;23.38;;
18596;SDS011;9428;50.950;6.912;2022-08-19T04:24:06;30.67;;;23.50;;
18596;SDS011;9428;50.950;6.912;2022-08-19T04:26:55;37.08;;;25.90;;
18596;SDS011;9428;50.950;6.912;2022-08-19T04:29:43;29.45;;;24.90;;
18596;SDS011;9428;50.950;6.912;2022-08-19T04:32:31;33.50;;;23.95;;
18596;SDS011;9428;50.950;6.912;2022-08-19T04:35:18;32.97;;;25.77;;
18596;SDS011;9428;50.950;6.912;2022-08-19T04:38:05;36.53;;;24.90;;
18596;SDS011;9428;50.950;6.912;2022-08-19T04:40:53;32.45;;;25.70;;
18596;SDS011;9428;50.950;6.912;2022-08-19T04:43:57;37.85;;;25.25;;
18596;SDS011;9428;50.950;6.912;2022-08-19T04:46:46;34.75;;;26.75;;
18596;SDS011;9428;50.950;6.912;2022-08-19T04:49:35;38.08;;;24.77;;
18596;SDS011;9428;50.950;6.912;2022-08-19T04:52:22;38.33;;;26.13;;
18596;SDS011;9428;50.950;6.912;2022-08-19T04:55:09;34.28;;;26.83;;
18596;SDS011;9428;50.950;6.912;2022-08-19T04:57:56;42.78;;;29.42;;
18596;SDS011;9428;50.950;6.912;2022-08-19T05:00:44;36.40;;;28.15;;
18596;SDS011;9428;50.950;6.912;2022-08-19T05:03:32;37.60;;;28.23;;
18596;SDS011;9428;50.950;6.912;2022-08-19T05:06:20;38.00;;;29.17;;
18596;SDS011;9428;50.950;6.912;2022-08-19T05:09:09;43.75;;;30.10;;
18596;SDS011;9428;50.950;6.912;2022-08-19T05:11:56;39.75;;;30.02;;
18596;SDS011;9428;50.950;6.912;2022-08-19T05:14:43;42.95;;;31.20;;
18596;SDS011;9428;50.950;6.912;2022-08-19T05:17:31;46.90;;;31.40;;
18596;SDS011;9428;50.950;6.912;2022-08-19T05:20:20;37.95;;;30.90;;
18596;SDS011;9428;50.950;6.912;2022-08-19T05:23:24;39.22;;;30.13;;
18596;SDS011;9428;50.950;6.912;2022-08-19T05:26:11;39.72;;;30.50;;
18596;SDS011;9428;50.950;6.912;2022-08-19T05:28:58;36.58;;;28.70;;
18596;SDS011;9428;50.950;6.912;2022-08-19T05:31:47;41.75;;;29.17;;
18596;SDS011;9428;50.950;6.912;2022-08-19T05:34:35;42.30;;;27.95;;
18596;SDS011;9428;50.950;6.912;2022-08-19T05:37:24;38.25;;;30.45;;
18596;SDS011;9428;50.950;6.912;2022-08-19T05:40:13;43.55;;;30.15;;
18596;SDS011;9428;50.950;6.912;2022-08-19T05:43:00;38.78;;;30.10;;
18596;SDS011;9428;50.950;6.912;2022-08-19T05:45:47;45.83;;;31.23;;
18596;SDS011;9428;50.950;6.912;2022-08-19T05:48:35;44.15;;;30.35;;
18596;SDS011;9428;50.950;6.912;2022-08-19T05:51:23;37.17;;;28.75;;
18596;SDS011;9428;50.950;6.912;2022-08-19T05:54:12;37.25;;;27.77;;
18596;SDS011;9428;50.950;6.912;2022-08-19T05:56:59;38.88;;;28.92;;
18596;SDS011;9428;50.950;6.912;2022-08-19T05:59:47;35.40;;;27.35;;
18596;SDS011;9428;50.950;6.912;2022-08-19T06:02:36;38.60;;;28.33;;
18596;SDS011;9428;50.950;6.912;2022-08-19T06:05:23;36.70;;;27.70;;
18596;SDS011;9428;50.950;6.912;2022-08-19T06:08:11;38.72;;;28.10;;
18596;SDS011;9428;50.950;6.912;2022-08-19T06:11:11;36.90;;;27.70;;
18596;SDS011;9428;50.950;6.912;2022-08-19T06:14:00;34.58;;;27.40;;
18596;SDS011;9428;50.950;6.912;2022-08-19T06:16:49;37.47;;;27.23;;
18596;SDS011;9428;50.950;6.912;2022-08-19T06:19:37;35.78;;;28.58;;
18596;SDS011;9428;50.950;6.912;2022-08-19T06:22:26;40.00;;;28.52;;
18596;SDS011;9428;50.950;6.912;2022-08-19T06:25:14;50.00;;;27.33;;
18596;SDS011;9428;50.950;6.912;2022-08-19T06:28:03;39.45;;;28.75;;
18596;SDS011;9428;50.950;6.912;2022-08-19T06:30:51;36.28;;;27.95;;
18596;SDS011;9428;50.950;6.912;2022-08-19T06:33:38;40.28;;;27.45;;
18596;SDS011;9428;50.950;6.912;2022-08-19T06:36:27;42.15;;;28.67;;
18596;SDS011;9428;50.950;6.912;2022-08-19T06:39:18;41.92;;;29.25;;
18596;SDS011;9428;50.950;6.912;2022-08-19T06:42:06;41.28;;;27.95;;
18596;SDS011;9428;50.950;6.912;2022-08-19T06:44:58;37.38;;;27.45;;
18596;SDS011;9428;50.950;6.912;2022-08-19T06:47:48;44.83;;;29.10;;
18596;SDS011;9428;50.950;6.912;2022-08-19T06:50:35;44.67;;;29.63;;
18596;SDS011;9428;50.950;6.912;2022-08-19T06:53:22;39.83;;;28.42;;
18596;SDS011;9428;50.950;6.912;2022-08-19T06:56:10;38.65;;;28.50;;
18596;SDS011;9428;50.950;6.912;2022-08-19T06:58:58;39.92;;;27.33;;
18596;SDS011;9428;50.950;6.912;2022-08-19T07:01:48;37.03;;;27.65;;
18596;SDS011;9428;50.950;6.912;2022-08-19T07:04:37;38.65;;;27.58;;
18596;SDS011;9428;50.950;6.912;2022-08-19T07:07:24;36.17;;;25.55;;
18596;SDS011;9428;50.950;6.912;2022-08-19T07:10:12;38.95;;;27.70;;
18596;SDS011;9428;50.950;6.912;2022-08-19T07:12:59;35.97;;;25.45;;
18596;SDS011;9428;50.950;6.912;2022-08-19T07:15:47;35.55;;;25.10;;
18596;SDS011;9428;50.950;6.912;2022-08-19T07:18:37;39.45;;;25.58;;
18596;SDS011;9428;50.950;6.912;2022-08-19T07:21:26;39.97;;;27.40;;
18596;SDS011;9428;50.950;6.912;2022-08-19T07:24:14;40.97;;;25.60;;
18596;SDS011;9428;50.950;6.912;2022-08-19T07:27:03;35.78;;;26.02;;
18596;SDS011;9428;50.950;6.912;2022-08-19T07:29:52;36.80;;;27.02;;
18596;SDS011;9428;50.950;6.912;2022-08-19T07:32:39;38.95;;;26.88;;
18596;SDS011;9428;50.950;6.912;2022-08-19T07:35:29;40.60;;;27.85;;
18596;SDS011;9428;50.950;6.912;2022-08-19T07:38:17;44.35;;;30.30;;
18596;SDS011;9428;50.950;6.912;2022-08-19T07:41:06;41.90;;;28.55;;
18596;SDS011;9428;50.950;6.912;2022-08-19T07:43:54;41.10;;;27.58;;
18596;SDS011;9428;50.950;6.912;2022-08-19T07:46:42;51.05;;;29.77;;
18596;SDS011;9428;50.950;6.912;2022-08-19T07:49:31;44.67;;;29.80;;
18596;SDS011;9428;50.950;6.912;2022-08-19T07:52:19;43.88;;;30.73;;
18596;SDS011;9428;50.950;6.912;2022-08-19T07:55:08;44.08;;;29.35;;
18596;SDS011;9428;50.950;6.912;2022-08-19T07:57:56;43.25;;;30.05;;
18596;SDS011;9428;50.950;6.912;2022-08-19T08:00:44;45.47;;;30.40;;
18596;SDS011;9428;50.950;6.912;2022-08-19T08:03:33;47.30;;;30.73;;
18596;SDS011;9428;50.950;6.912;2022-08-19T08:06:37;49.15;;;32.35;;
18596;SDS011;9428;50.950;6.912;2022-08-19T08:09:44;49.25;;;32.25;;
18596;SDS011;9428;50.950;6.912;2022-08-19T08:12:32;50.90;;;34.03;;
18596;SDS011;9428;50.950;6.912;2022-08-19T08:15:26;50.83;;;34.20;;
18596;SDS011;9428;50.950;6.912;2022-08-19T08:18:13;57.58;;;34.97;;
18596;SDS011;9428;50.950;6.912;2022-08-19T08:21:01;53.13;;;34.03;;
18596;SDS011;9428;50.950;6.912;2022-08-19T08:23:48;52.00;;;33.53;;
18596;SDS011;9428;50.950;6.912;2022-08-19T08:26:38;50.60;;;33.63;;
18596;SDS011;9428;50.950;6.912;2022-08-19T08:29:26;51.10;;;34.03;;
18596;SDS011;9428;50.950;6.912;2022-08-19T08:32:14;52.38;;;33.58;;
18596;SDS011;9428;50.950;6.912;2022-08-19T08:35:02;54.47;;;36.17;;
18596;SDS011;9428;50.950;6.912;2022-08-19T08:37:51;55.05;;;35.55;;
18596;SDS011;9428;50.950;6.912;2022-08-19T08:40:42;52.15;;;34.78;;
18596;SDS011;9428;50.950;6.912;2022-08-19T08:43:33;57.05;;;35.58;;
18596;SDS011;9428;50.950;6.912;2022-08-19T08:46:23;51.17;;;34.10;;
18596;SDS011;9428;50.950;6.912;2022-08-19T08:49:21;50.85;;;35.65;;
18596;SDS011;9428;50.950;6.912;2022-08-19T08:52:18;51.17;;;33.42;;
18596;SDS011;9428;50.950;6.912;2022-08-19T08:55:10;54.42;;;34.67;;
18596;SDS011;9428;50.950;6.912;2022-08-19T08:58:01;53.20;;;34.88;;
18596;SDS011;9428;50.950;6.912;2022-08-19T09:00:53;51.08;;;34.13;;
18596;SDS011;9428;50.950;6.912;2022-08-19T09:03:41;50.20;;;32.50;;
18596;SDS011;9428;50.950;6.912;2022-08-19T09:06:32;50.67;;;34.55;;
18596;SDS011;9428;50.950;6.912;2022-08-19T09:09:26;52.60;;;32.00;;
18596;SDS011;9428;50.950;6.912;2022-08-19T09:12:21;49.35;;;31.38;;
18596;SDS011;9428;50.950;6.912;2022-08-19T09:15:21;45.90;;;30.98;;
18596;SDS011;9428;50.950;6.912;2022-08-19T09:18:18;44.00;;;28.35;;
18596;SDS011;9428;50.950;6.912;2022-08-19T09:21:09;44.53;;;31.17;;
18596;SDS011;9428;50.950;6.912;2022-08-19T09:23:57;41.25;;;28.38;;
18596;SDS011;9428;50.950;6.912;2022-08-19T09:26:46;38.58;;;24.83;;
18596;SDS011;9428;50.950;6.912;2022-08-19T09:29:33;40.22;;;28.23;;
18596;SDS011;9428;50.950;6.912;2022-08-19T09:32:21;35.08;;;25.88;;
18596;SDS011;9428;50.950;6.912;2022-08-19T09:35:10;39.17;;;26.08;;
18596;SDS011;9428;50.950;6.912;2022-08-19T09:37:59;38.17;;;27.23;;
18596;SDS011;9428;50.950;6.912;2022-08-19T09:40:46;39.65;;;25.90;;
18596;SDS011;9428;50.950;6.912;2022-08-19T09:43:34;33.30;;;24.67;;
18596;SDS011;9428;50.950;6.912;2022-08-19T09:46:22;34.75;;;23.02;;
18596;SDS011;9428;50.950;6.912;2022-08-19T09:49:11;27.52;;;20.50;;
18596;SDS011;9428;50.950;6.912;2022-08-19T09:52:00;27.20;;;19.23;;
18596;SDS011;9428;50.950;6.912;2022-08-19T09:54:47;28.15;;;19.25;;
18596;SDS011;9428;50.950;6.912;2022-08-19T09:57:38;27.48;;;17.95;;
18596;SDS011;9428;50.950;6.912;2022-08-19T10:00:25;25.30;;;17.58;;
18596;SDS011;9428;50.950;6.912;2022-08-19T10:03:13;23.33;;;16.75;;
18596;SDS011;9428;50.950;6.912;2022-08-19T10:06:01;24.95;;;18.52;;
18596;SDS011;9428;50.950;6.912;2022-08-19T10:08:51;21.15;;;16.15;;
18596;SDS011;9428;50.950;6.912;2022-08-19T10:11:39;19.90;;;15.05;;
18596;SDS011;9428;50.950;6.912;2022-08-19T10:14:27;20.23;;;15.75;;
18596;SDS011;9428;50.950;6.912;2022-08-19T10:17:15;19.23;;;14.55;;
18596;SDS011;9428;50.950;6.912;2022-08-19T10:20:03;19.65;;;15.15;;
18596;SDS011;9428;50.950;6.912;2022-08-19T10:22:51;24.67;;;15.45;;
18596;SDS011;9428;50.950;6.912;2022-08-19T10:25:41;24.83;;;15.30;;
18596;SDS011;9428;50.950;6.912;2022-08-19T10:28:29;19.27;;;14.10;;
18596;SDS011;9428;50.950;6.912;2022-08-19T10:31:17;19.00;;;13.90;;
18596;SDS011;9428;50.950;6.912;2022-08-19T10:34:06;25.55;;;15.55;;
18596;SDS011;9428;50.950;6.912;2022-08-19T10:36:53;22.60;;;16.85;;
18596;SDS011;9428;50.950;6.912;2022-08-19T10:39:41;22.83;;;15.45;;
18596;SDS011;9428;50.950;6.912;2022-08-19T10:42:30;23.58;;;16.20;;
18596;SDS011;9428;50.950;6.912;2022-08-19T10:45:18;25.08;;;17.73;;
18596;SDS011;9428;50.950;6.912;2022-08-19T10:48:07;27.05;;;19.15;;
18596;SDS011;9428;50.950;6.912;2022-08-19T10:50:54;23.35;;;18.33;;
18596;SDS011;9428;50.950;6.912;2022-08-19T10:54:01;25.17;;;17.13;;
18596;SDS011;9428;50.950;6.912;2022-08-19T10:56:49;24.70;;;16.65;;
18596;SDS011;9428;50.950;6.912;2022-08-19T10:59:39;19.98;;;16.80;;
18596;SDS011;9428;50.950;6.912;2022-08-19T11:02:26;25.67;;;18.45;;
18596;SDS011;9428;50.950;6.912;2022-08-19T11:05:14;22.58;;;16.70;;
18596;SDS011;9428;50.950;6.912;2022-08-19T11:08:02;21.60;;;16.15;;
18596;SDS011;9428;50.950;6.912;2022-08-19T11:10:51;24.73;;;16.52;;
18596;SDS011;9428;50.950;6.912;2022-08-19T11:13:40;20.83;;;15.65;;
18596;SDS011;9428;50.950;6.912;2022-08-19T11:16:30;17.75;;;11.90;;
18596;SDS011;9428;50.950;6.912;2022-08-19T11:19:17;15.88;;;12.18;;
18596;SDS011;9428;50.950;6.912;2022-08-19T11:22:07;13.98;;;9.82;;
18596;SDS011;9428;50.950;6.912;2022-08-19T11:24:55;14.02;;;11.25;;
18596;SDS011;9428;50.950;6.912;2022-08-19T11:27:42;13.40;;;10.93;;
18596;SDS011;9428;50.950;6.912;2022-08-19T11:30:31;17.80;;;12.60;;
18596;SDS011;9428;50.950;6.912;2022-08-19T11:33:20;16.90;;;13.75;;
18596;SDS011;9428;50.950;6.912;2022-08-19T11:36:08;13.40;;;9.63;;
18596;SDS011;9428;50.950;6.912;2022-08-19T11:38:56;13.73;;;11.75;;
18596;SDS011;9428;50.950;6.912;2022-08-19T11:41:43;13.10;;;11.35;;
18596;SDS011;9428;50.950;6.912;2022-08-19T11:44:31;14.07;;;10.60;;
18596;SDS011;9428;50.950;6.912;2022-08-19T11:47:18;13.00;;;10.13;;
18596;SDS011;9428;50.950;6.912;2022-08-19T11:50:08;15.95;;;11.07;;
18596;SDS011;9428;50.950;6.912;2022-08-19T11:52:55;11.88;;;10.20;;
18596;SDS011;9428;50.950;6.912;2022-08-19T11:55:43;14.90;;;9.77;;
18596;SDS011;9428;50.950;6.912;2022-08-19T11:58:31;14.25;;;9.93;;
18596;SDS011;9428;50.950;6.912;2022-08-19T12:01:20;13.82;;;10.70;;
18596;SDS011;9428;50.950;6.912;2022-08-19T12:04:09;12.50;;;10.20;;
18596;SDS011;9428;50.950;6.912;2022-08-19T12:06:58;11.88;;;9.77;;
18596;SDS011;9428;50.950;6.912;2022-08-19T12:09:45;14.70;;;9.63;;
18596;SDS011;9428;50.950;6.912;2022-08-19T12:12:32;13.20;;;9.77;;
18596;SDS011;9428;50.950;6.912;2022-08-19T12:15:19;13.05;;;11.25;;
18596;SDS011;9428;50.950;6.912;2022-08-19T12:18:07;13.50;;;8.93;;
18596;SDS011;9428;50.950;6.912;2022-08-19T12:20:55;14.65;;;9.73;;
18596;SDS011;9428;50.950;6.912;2022-08-19T12:23:43;12.98;;;8.55;;
18596;SDS011;9428;50.950;6.912;2022-08-19T12:26:31;10.55;;;8.73;;
18596;SDS011;9428;50.950;6.912;2022-08-19T12:29:19;11.18;;;9.48;;
18596;SDS011;9428;50.950;6.912;2022-08-19T12:32:07;19.67;;;9.85;;
18596;SDS011;9428;50.950;6.912;2022-08-19T12:34:54;16.33;;;9.15;;
18596;SDS011;9428;50.950;6.912;2022-08-19T12:37:41;13.80;;;8.60;;
18596;SDS011;9428;50.950;6.912;2022-08-19T12:40:31;17.08;;;9.82;;
18596;SDS011;9428;50.950;6.912;2022-08-19T12:43:18;17.42;;;9.52;;
18596;SDS011;9428;50.950;6.912;2022-08-19T12:46:06;12.27;;;8.35;;
18596;SDS011;9428;50.950;6.912;2022-08-19T12:48:53;15.35;;;9.63;;
18596;SDS011;9428;50.950;6.912;2022-08-19T12:51:40;11.70;;;8.95;;
18596;SDS011;9428;50.950;6.912;2022-08-19T12:54:29;12.82;;;9.95;;
18596;SDS011;9428;50.950;6.912;2022-08-19T12:57:18;15.25;;;9.02;;
18596;SDS011;9428;50.950;6.912;2022-08-19T13:00:06;13.48;;;9.02;;
18596;SDS011;9428;50.950;6.912;2022-08-19T13:02:57;10.65;;;8.25;;
18596;SDS011;9428;50.950;6.912;2022-08-19T13:05:45;12.05;;;8.27;;
18596;SDS011;9428;50.950;6.912;2022-08-19T13:08:32;10.90;;;7.43;;
18596;SDS011;9428;50.950;6.912;2022-08-19T13:11:20;10.48;;;7.40;;
18596;SDS011;9428;50.950;6.912;2022-08-19T13:14:11;15.27;;;7.00;;
18596;SDS011;9428;50.950;6.912;2022-08-19T13:16:58;10.75;;;6.53;;
18596;SDS011;9428;50.950;6.912;2022-08-19T13:19:48;11.32;;;7.25;;
18596;SDS011;9428;50.950;6.912;2022-08-19T13:22:35;10.98;;;7.15;;
18596;SDS011;9428;50.950;6.912;2022-08-19T13:25:23;8.40;;;6.03;;
18596;SDS011;9428;50.950;6.912;2022-08-19T13:28:11;9.63;;;7.60;;
18596;SDS011;9428;50.950;6.912;2022-08-19T13:31:00;10.00;;;6.03;;
18596;SDS011;9428;50.950;6.912;2022-08-19T13:34:05;10.00;;;7.38;;
18596;SDS011;9428;50.950;6.912;2022-08-19T13:36:53;10.30;;;6.05;;
18596;SDS011;9428;50.950;6.912;2022-08-19T13:39:40;8.07;;;6.00;;
18596;SDS011;9428;50.950;6.912;2022-08-19T13:42:27;9.18;;;6.15;;
18596;SDS011;9428;50.950;6.912;2022-08-19T13:45:16;9.32;;;5.65;;
18596;SDS011;9428;50.950;6.912;2022-08-19T13:48:06;9.95;;;5.60;;
18596;SDS011;9428;50.950;6.912;2022-08-19T13:50:54;9.55;;;6.03;;
18596;SDS011;9428;50.950;6.912;2022-08-19T13:53:42;10.30;;;6.60;;
18596;SDS011;9428;50.950;6.912;2022-08-19T13:56:30;12.55;;;7.18;;
18596;SDS011;9428;50.950;6.912;2022-08-19T13:59:17;11.60;;;7.00;;
18596;SDS011;9428;50.950;6.912;2022-08-19T14:02:04;8.45;;;6.07;;
18596;SDS011;9428;50.950;6.912;2022-08-19T14:04:53;8.30;;;4.55;;
18596;SDS011;9428;50.950;6.912;2022-08-19T14:07:40;7.78;;;4.97;;
18596;SDS011;9428;50.950;6.912;2022-08-19T14:10:28;8.02;;;6.00;;
18596;SDS011;9428;50.950;6.912;2022-08-19T14:13:17;10.80;;;6.10;;
18596;SDS011;9428;50.950;6.912;2022-08-19T14:16:06;8.13;;;6.13;;
18596;SDS011;9428;50.950;6.912;2022-08-19T14:18:55;11.63;;;5.45;;
18596;SDS011;9428;50.950;6.912;2022-08-19T14:21:43;9.98;;;5.43;;
18596;SDS011;9428;50.950;6.912;2022-08-19T14:24:31;9.65;;;6.47;;
18596;SDS011;9428;50.950;6.912;2022-08-19T14:27:18;12.13;;;7.15;;
18596;SDS011;9428;50.950;6.912;2022-08-19T14:30:06;9.38;;;5.80;;
18596;SDS011;9428;50.950;6.912;2022-08-19T14:32:54;7.15;;;5.80;;
18596;SDS011;9428;50.950;6.912;2022-08-19T14:35:43;6.60;;;5.72;;
18596;SDS011;9428;50.950;6.912;2022-08-19T14:38:32;8.25;;;5.32;;
18596;SDS011;9428;50.950;6.912;2022-08-19T14:41:20;9.15;;;4.97;;
18596;SDS011;9428;50.950;6.912;2022-08-19T14:44:09;11.10;;;7.68;;
18596;SDS011;9428;50.950;6.912;2022-08-19T14:46:57;9.32;;;5.07;;
18596;SDS011;9428;50.950;6.912;2022-08-19T14:49:44;6.43;;;5.07;;
18596;SDS011;9428;50.950;6.912;2022-08-19T14:52:32;9.40;;;4.82;;
18596;SDS011;9428;50.950;6.912;2022-08-19T14:55:20;6.93;;;4.35;;
18596;SDS011;9428;50.950;6.912;2022-08-19T14:58:08;12.07;;;4.55;;
18596;SDS011;9428;50.950;6.912;2022-08-19T15:00:55;6.20;;;3.50;;
18596;SDS011;9428;50.950;6.912;2022-08-19T15:03:43;9.55;;;4.65;;
18596;SDS011;9428;50.950;6.912;2022-08-19T15:06:31;12.68;;;4.60;;
18596;SDS011;9428;50.950;6.912;2022-08-19T15:09:18;6.43;;;4.18;;
18596;SDS011;9428;50.950;6.912;2022-08-19T15:12:07;4.70;;;4.05;;
18596;SDS011;9428;50.950;6.912;2022-08-19T15:14:55;4.53;;;3.70;;
18596;SDS011;9428;50.950;6.912;2022-08-19T15:17:43;4.47;;;3.22;;
18596;SDS011;9428;50.950;6.912;2022-08-19T15:20:31;6.70;;;3.97;;
18596;SDS011;9428;50.950;6.912;2022-08-19T15:23:19;6.10;;;3.72;;
18596;SDS011;9428;50.950;6.912;2022-08-19T15:26:07;5.90;;;3.55;;
18596;SDS011;9428;50.950;6.912;2022-08-19T15:28:57;6.90;;;2.90;;
18596;SDS011;9428;50.950;6.912;2022-08-19T15:31:44;4.22;;;3.47;;
18596;SDS011;9428;50.950;6.912;2022-08-19T15:34:31;3.75;;;2.80;;
18596;SDS011;9428;50.950;6.912;2022-08-19T15:37:20;7.20;;;3.40;;
18596;SDS011;9428;50.950;6.912;2022-08-19T15:40:08;3.20;;;2.90;;
18596;SDS011;9428;50.950;6.912;2022-08-19T15:42:56;4.78;;;3.25;;
18596;SDS011;9428;50.950;6.912;2022-08-19T15:45:46;3.65;;;2.80;;
18596;SDS011;9428;50.950;6.912;2022-08-19T15:48:34;5.53;;;3.63;;
18596;SDS011;9428;50.950;6.912;2022-08-19T15:51:23;9.90;;;3.30;;
18596;SDS011;9428;50.950;6.912;2022-08-19T15:54:12;5.43;;;3.20;;
18596;SDS011;9428;50.950;6.912;2022-08-19T15:57:01;4.20;;;3.35;;
18596;SDS011;9428;50.950;6.912;2022-08-19T16:00:06;5.18;;;3.42;;
18596;SDS011;9428;50.950;6.912;2022-08-19T16:03:13;5.93;;;3.03;;
18596;SDS011;9428;50.950;6.912;2022-08-19T16:06:18;5.55;;;3.00;;
18596;SDS011;9428;50.950;6.912;2022-08-19T16:09:12;5.40;;;3.10;;
18596;SDS011;9428;50.950;6.912;2022-08-19T16:12:01;4.80;;;3.30;;
18596;SDS011;9428;50.950;6.912;2022-08-19T16:14:50;6.82;;;3.80;;
18596;SDS011;9428;50.950;6.912;2022-08-19T16:17:37;7.97;;;4.47;;
18596;SDS011;9428;50.950;6.912;2022-08-19T16:20:26;7.93;;;3.35;;
18596;SDS011;9428;50.950;6.912;2022-08-19T16:23:14;6.22;;;3.03;;
18596;SDS011;9428;50.950;6.912;2022-08-19T16:26:01;5.43;;;2.53;;
18596;SDS011;9428;50.950;6.912;2022-08-19T16:28:49;2.75;;;2.30;;
18596;SDS011;9428;50.950;6.912;2022-08-19T16:31:36;4.32;;;2.80;;
18596;SDS011;9428;50.950;6.912;2022-08-19T16:34:24;5.78;;;3.03;;
18596;SDS011;9428;50.950;6.912;2022-08-19T16:37:13;9.57;;;3.50;;
18596;SDS011;9428;50.950;6.912;2022-08-19T16:40:01;9.35;;;3.10;;
18596;SDS011;9428;50.950;6.912;2022-08-19T16:42:49;19.40;;;6.78;;
18596;SDS011;9428;50.950;6.912;2022-08-19T16:45:37;6.20;;;3.40;;
18596;SDS011;9428;50.950;6.912;2022-08-19T16:48:25;3.92;;;2.13;;
18596;SDS011;9428;50.950;6.912;2022-08-19T16:51:15;3.30;;;2.00;;
18596;SDS011;9428;50.950;6.912;2022-08-19T16:54:04;3.15;;;2.65;;